sensor_id;sensor_type;location;lat;lon;timestamp;temperature;humidity
35700;DHT22;21818;51.078;12.108;2022-12-18T00:02:15;10.00;69.80
35700;DHT22;21818;51.078;12.108;2022-12-18T00:04:41;10.00;69.80
35700;DHT22;21818;51.078;12.108;2022-12-18T00:07:07;10.00;69.90
35700;DHT22;21818;51.078;12.108;2022-12-18T00:09:32;10.10;70.10
35700;DHT22;21818;51.078;12.108;2022-12-18T00:11:58;10.10;70.10
35700;DHT22;21818;51.078;12.108;2022-12-18T00:14:24;10.10;70.00
35700;DHT22;21818;51.078;12.108;2022-12-18T00:16:49;10.00;70.00
35700;DHT22;21818;51.078;12.108;2022-12-18T00:19:16;10.00;70.00
35700;DHT22;21818;51.078;12.108;2022-12-18T00:21:42;10.00;69.90
35700;DHT22;21818;51.078;12.108;2022-12-18T00:24:09;10.00;70.00
35700;DHT22;21818;51.078;12.108;2022-12-18T00:26:36;9.90;69.90
35700;DHT22;21818;51.078;12.108;2022-12-18T00:29:09;9.90;69.90
35700;DHT22;21818;51.078;12.108;2022-12-18T00:31:36;9.90;70.00
35700;DHT22;21818;51.078;12.108;2022-12-18T00:34:03;9.90;70.00
35700;DHT22;21818;51.078;12.108;2022-12-18T00:36:31;9.90;70.00
35700;DHT22;21818;51.078;12.108;2022-12-18T00:38:58;10.00;70.10
35700;DHT22;21818;51.078;12.108;2022-12-18T00:41:24;10.00;70.00
35700;DHT22;21818;51.078;12.108;2022-12-18T00:44:10;10.00;70.60
35700;DHT22;21818;51.078;12.108;2022-12-18T00:46:37;9.90;70.00
35700;DHT22;21818;51.078;12.108;2022-12-18T00:49:03;9.90;70.00
35700;DHT22;21818;51.078;12.108;2022-12-18T00:51:29;9.90;70.00
35700;DHT22;21818;51.078;12.108;2022-12-18T00:53:54;9.90;70.10
35700;DHT22;21818;51.078;12.108;2022-12-18T00:56:20;9.90;70.20
35700;DHT22;21818;51.078;12.108;2022-12-18T00:58:45;9.90;70.20
35700;DHT22;21818;51.078;12.108;2022-12-18T01:01:11;9.90;70.20
35700;DHT22;21818;51.078;12.108;2022-12-18T01:03:37;9.90;70.20
35700;DHT22;21818;51.078;12.108;2022-12-18T01:06:07;9.80;70.30
35700;DHT22;21818;51.078;12.108;2022-12-18T01:08:33;9.80;70.30
35700;DHT22;21818;51.078;12.108;2022-12-18T01:10:59;9.90;70.30
35700;DHT22;21818;51.078;12.108;2022-12-18T01:13:24;9.80;70.30
35700;DHT22;21818;51.078;12.108;2022-12-18T01:15:50;9.80;70.50
35700;DHT22;21818;51.078;12.108;2022-12-18T01:18:16;9.80;70.50
35700;DHT22;21818;51.078;12.108;2022-12-18T01:20:42;9.80;70.50
35700;DHT22;21818;51.078;12.108;2022-12-18T01:23:08;9.80;70.50
35700;DHT22;21818;51.078;12.108;2022-12-18T01:25:36;9.80;70.50
35700;DHT22;21818;51.078;12.108;2022-12-18T01:28:02;9.80;70.60
35700;DHT22;21818;51.078;12.108;2022-12-18T01:30:27;9.80;70.50
35700;DHT22;21818;51.078;12.108;2022-12-18T01:32:53;9.80;70.50
35700;DHT22;21818;51.078;12.108;2022-12-18T01:35:19;9.70;70.40
35700;DHT22;21818;51.078;12.108;2022-12-18T01:37:44;9.70;70.50
35700;DHT22;21818;51.078;12.108;2022-12-18T01:40:10;9.70;70.60
35700;DHT22;21818;51.078;12.108;2022-12-18T01:42:35;9.70;70.60
35700;DHT22;21818;51.078;12.108;2022-12-18T01:45:05;9.70;70.60
35700;DHT22;21818;51.078;12.108;2022-12-18T01:47:47;9.70;70.60
35700;DHT22;21818;51.078;12.108;2022-12-18T01:52:58;9.70;70.60
35700;DHT22;21818;51.078;12.108;2022-12-18T01:55:28;9.70;70.50
35700;DHT22;21818;51.078;12.108;2022-12-18T01:57:57;9.60;70.50
35700;DHT22;21818;51.078;12.108;2022-12-18T02:00:24;9.60;70.60
35700;DHT22;21818;51.078;12.108;2022-12-18T02:02:50;9.60;70.50
35700;DHT22;21818;51.078;12.108;2022-12-18T02:10:45;9.60;70.60
35700;DHT22;21818;51.078;12.108;2022-12-18T02:13:20;9.60;70.60
35700;DHT22;21818;51.078;12.108;2022-12-18T02:18:21;9.60;70.60
35700;DHT22;21818;51.078;12.108;2022-12-18T02:23:47;9.50;70.40
35700;DHT22;21818;51.078;12.108;2022-12-18T02:26:24;9.60;70.60
35700;DHT22;21818;51.078;12.108;2022-12-18T02:29:05;9.60;70.60
35700;DHT22;21818;51.078;12.108;2022-12-18T02:31:38;9.60;70.70
35700;DHT22;21818;51.078;12.108;2022-12-18T02:34:06;9.60;70.70
35700;DHT22;21818;51.078;12.108;2022-12-18T02:36:35;9.60;70.70
35700;DHT22;21818;51.078;12.108;2022-12-18T02:39:02;9.60;70.80
35700;DHT22;21818;51.078;12.108;2022-12-18T02:41:30;9.60;70.80
35700;DHT22;21818;51.078;12.108;2022-12-18T02:43:59;9.50;70.80
35700;DHT22;21818;51.078;12.108;2022-12-18T02:46:35;9.50;70.80
35700;DHT22;21818;51.078;12.108;2022-12-18T02:52:00;9.50;70.80
35700;DHT22;21818;51.078;12.108;2022-12-18T02:54:39;9.60;70.90
35700;DHT22;21818;51.078;12.108;2022-12-18T03:00:12;9.50;70.90
35700;DHT22;21818;51.078;12.108;2022-12-18T03:02:53;9.60;71.10
35700;DHT22;21818;51.078;12.108;2022-12-18T03:05:43;9.60;71.00
35700;DHT22;21818;51.078;12.108;2022-12-18T03:08:22;9.60;70.70
35700;DHT22;21818;51.078;12.108;2022-12-18T03:10:53;9.50;70.70
35700;DHT22;21818;51.078;12.108;2022-12-18T03:13:27;9.50;70.70
35700;DHT22;21818;51.078;12.108;2022-12-18T03:15:55;9.50;70.80
35700;DHT22;21818;51.078;12.108;2022-12-18T03:18:29;9.50;70.80
35700;DHT22;21818;51.078;12.108;2022-12-18T03:20:58;9.50;70.80
35700;DHT22;21818;51.078;12.108;2022-12-18T03:23:29;9.50;70.80
35700;DHT22;21818;51.078;12.108;2022-12-18T03:25:59;9.50;70.80
35700;DHT22;21818;51.078;12.108;2022-12-18T03:28:29;9.50;70.80
35700;DHT22;21818;51.078;12.108;2022-12-18T03:30:57;9.50;70.80
35700;DHT22;21818;51.078;12.108;2022-12-18T03:33:32;9.40;70.70
35700;DHT22;21818;51.078;12.108;2022-12-18T03:36:00;9.50;70.80
35700;DHT22;21818;51.078;12.108;2022-12-18T03:38:26;9.50;70.80
35700;DHT22;21818;51.078;12.108;2022-12-18T03:49:38;9.50;70.80
35700;DHT22;21818;51.078;12.108;2022-12-18T03:52:18;9.40;70.90
35700;DHT22;21818;51.078;12.108;2022-12-18T03:54:46;9.40;70.90
35700;DHT22;21818;51.078;12.108;2022-12-18T03:57:19;9.50;70.80
35700;DHT22;21818;51.078;12.108;2022-12-18T03:59:48;9.40;70.90
35700;DHT22;21818;51.078;12.108;2022-12-18T04:02:16;9.40;70.90
35700;DHT22;21818;51.078;12.108;2022-12-18T04:04:43;9.40;71.00
35700;DHT22;21818;51.078;12.108;2022-12-18T04:07:10;9.40;71.00
35700;DHT22;21818;51.078;12.108;2022-12-18T04:09:38;9.40;71.10
35700;DHT22;21818;51.078;12.108;2022-12-18T04:12:05;9.50;71.10
35700;DHT22;21818;51.078;12.108;2022-12-18T04:14:31;9.40;71.10
35700;DHT22;21818;51.078;12.108;2022-12-18T04:17:01;9.50;71.20
35700;DHT22;21818;51.078;12.108;2022-12-18T04:19:27;9.40;71.10
35700;DHT22;21818;51.078;12.108;2022-12-18T04:21:53;9.50;71.20
35700;DHT22;21818;51.078;12.108;2022-12-18T04:24:19;9.40;71.10
35700;DHT22;21818;51.078;12.108;2022-12-18T04:26:45;9.40;71.10
35700;DHT22;21818;51.078;12.108;2022-12-18T04:29:11;9.40;71.10
35700;DHT22;21818;51.078;12.108;2022-12-18T04:31:36;9.40;71.10
35700;DHT22;21818;51.078;12.108;2022-12-18T04:34:02;9.40;71.20
35700;DHT22;21818;51.078;12.108;2022-12-18T04:36:28;9.40;71.20
35700;DHT22;21818;51.078;12.108;2022-12-18T04:38:54;9.30;71.20
35700;DHT22;21818;51.078;12.108;2022-12-18T04:41:19;9.30;71.20
35700;DHT22;21818;51.078;12.108;2022-12-18T04:43:45;9.30;71.20
35700;DHT22;21818;51.078;12.108;2022-12-18T04:46:10;9.30;71.20
35700;DHT22;21818;51.078;12.108;2022-12-18T04:48:37;9.30;71.20
35700;DHT22;21818;51.078;12.108;2022-12-18T04:51:03;9.30;71.20
35700;DHT22;21818;51.078;12.108;2022-12-18T04:53:29;9.30;71.20
35700;DHT22;21818;51.078;12.108;2022-12-18T04:56:12;9.30;71.10
35700;DHT22;21818;51.078;12.108;2022-12-18T04:58:40;9.40;71.20
35700;DHT22;21818;51.078;12.108;2022-12-18T05:01:07;9.30;71.00
35700;DHT22;21818;51.078;12.108;2022-12-18T05:03:33;9.30;71.10
35700;DHT22;21818;51.078;12.108;2022-12-18T05:05:59;9.20;71.00
35700;DHT22;21818;51.078;12.108;2022-12-18T05:08:25;9.30;71.20
35700;DHT22;21818;51.078;12.108;2022-12-18T05:10:59;9.30;71.10
35700;DHT22;21818;51.078;12.108;2022-12-18T05:13:25;9.30;71.20
35700;DHT22;21818;51.078;12.108;2022-12-18T05:15:54;9.30;71.20
35700;DHT22;21818;51.078;12.108;2022-12-18T05:18:20;9.30;71.10
35700;DHT22;21818;51.078;12.108;2022-12-18T05:20:45;9.20;71.10
35700;DHT22;21818;51.078;12.108;2022-12-18T05:23:11;9.20;71.20
35700;DHT22;21818;51.078;12.108;2022-12-18T05:25:37;9.30;71.30
35700;DHT22;21818;51.078;12.108;2022-12-18T05:28:02;9.30;71.30
35700;DHT22;21818;51.078;12.108;2022-12-18T05:30:28;9.30;71.20
35700;DHT22;21818;51.078;12.108;2022-12-18T05:32:54;9.20;71.20
35700;DHT22;21818;51.078;12.108;2022-12-18T05:35:19;9.20;71.20
35700;DHT22;21818;51.078;12.108;2022-12-18T05:37:45;9.20;71.40
35700;DHT22;21818;51.078;12.108;2022-12-18T05:40:11;9.20;71.30
35700;DHT22;21818;51.078;12.108;2022-12-18T05:42:37;9.20;71.20
35700;DHT22;21818;51.078;12.108;2022-12-18T05:45:04;9.20;71.10
35700;DHT22;21818;51.078;12.108;2022-12-18T05:47:30;9.20;71.20
35700;DHT22;21818;51.078;12.108;2022-12-18T05:49:56;9.20;71.20
35700;DHT22;21818;51.078;12.108;2022-12-18T05:52:21;9.20;71.00
35700;DHT22;21818;51.078;12.108;2022-12-18T05:54:47;9.20;71.00
35700;DHT22;21818;51.078;12.108;2022-12-18T05:57:13;9.20;71.10
35700;DHT22;21818;51.078;12.108;2022-12-18T05:59:39;9.20;71.10
35700;DHT22;21818;51.078;12.108;2022-12-18T06:02:04;9.20;71.10
35700;DHT22;21818;51.078;12.108;2022-12-18T06:04:30;9.20;71.00
35700;DHT22;21818;51.078;12.108;2022-12-18T06:06:56;9.20;71.60
35700;DHT22;21818;51.078;12.108;2022-12-18T06:09:22;9.20;71.10
35700;DHT22;21818;51.078;12.108;2022-12-18T06:11:48;9.20;71.10
35700;DHT22;21818;51.078;12.108;2022-12-18T06:14:14;9.20;71.10
35700;DHT22;21818;51.078;12.108;2022-12-18T06:16:42;9.20;71.20
35700;DHT22;21818;51.078;12.108;2022-12-18T06:19:12;9.20;71.40
35700;DHT22;21818;51.078;12.108;2022-12-18T06:21:38;9.20;71.40
35700;DHT22;21818;51.078;12.108;2022-12-18T06:24:04;9.20;71.30
35700;DHT22;21818;51.078;12.108;2022-12-18T06:26:30;9.20;71.20
35700;DHT22;21818;51.078;12.108;2022-12-18T06:28:56;9.20;71.30
35700;DHT22;21818;51.078;12.108;2022-12-18T06:31:21;9.20;71.30
35700;DHT22;21818;51.078;12.108;2022-12-18T06:33:47;9.20;71.40
35700;DHT22;21818;51.078;12.108;2022-12-18T06:36:13;9.20;71.40
35700;DHT22;21818;51.078;12.108;2022-12-18T06:38:41;9.20;71.30
35700;DHT22;21818;51.078;12.108;2022-12-18T06:41:15;9.10;71.40
35700;DHT22;21818;51.078;12.108;2022-12-18T06:43:41;9.10;71.40
35700;DHT22;21818;51.078;12.108;2022-12-18T06:46:07;9.20;71.50
35700;DHT22;21818;51.078;12.108;2022-12-18T06:48:33;9.20;71.50
35700;DHT22;21818;51.078;12.108;2022-12-18T06:50:59;9.10;71.40
35700;DHT22;21818;51.078;12.108;2022-12-18T06:53:25;9.00;71.90
35700;DHT22;21818;51.078;12.108;2022-12-18T06:55:51;9.00;71.90
35700;DHT22;21818;51.078;12.108;2022-12-18T06:58:17;9.10;72.40
35700;DHT22;21818;51.078;12.108;2022-12-18T07:00:43;9.20;71.90
35700;DHT22;21818;51.078;12.108;2022-12-18T07:03:08;9.30;71.70
35700;DHT22;21818;51.078;12.108;2022-12-18T07:05:34;9.40;71.90
35700;DHT22;21818;51.078;12.108;2022-12-18T07:08:04;9.60;71.60
35700;DHT22;21818;51.078;12.108;2022-12-18T07:10:30;9.80;71.30
35700;DHT22;21818;51.078;12.108;2022-12-18T07:12:56;9.90;71.00
35700;DHT22;21818;51.078;12.108;2022-12-18T07:15:21;10.10;70.90
35700;DHT22;21818;51.078;12.108;2022-12-18T07:17:47;10.20;70.50
35700;DHT22;21818;51.078;12.108;2022-12-18T07:20:12;10.30;70.40
35700;DHT22;21818;51.078;12.108;2022-12-18T07:22:38;10.40;70.30
35700;DHT22;21818;51.078;12.108;2022-12-18T07:25:04;10.40;70.40
35700;DHT22;21818;51.078;12.108;2022-12-18T07:27:29;10.40;70.90
35700;DHT22;21818;51.078;12.108;2022-12-18T07:29:55;10.40;70.30
35700;DHT22;21818;51.078;12.108;2022-12-18T07:32:21;10.40;70.20
35700;DHT22;21818;51.078;12.108;2022-12-18T07:34:46;10.40;70.10
35700;DHT22;21818;51.078;12.108;2022-12-18T07:37:12;10.40;70.10
35700;DHT22;21818;51.078;12.108;2022-12-18T07:39:37;10.40;70.00
35700;DHT22;21818;51.078;12.108;2022-12-18T07:42:03;10.40;70.10
35700;DHT22;21818;51.078;12.108;2022-12-18T07:44:47;10.30;70.00
35700;DHT22;21818;51.078;12.108;2022-12-18T07:47:13;10.30;70.20
35700;DHT22;21818;51.078;12.108;2022-12-18T07:49:38;10.30;70.50
35700;DHT22;21818;51.078;12.108;2022-12-18T07:52:04;10.30;70.60
35700;DHT22;21818;51.078;12.108;2022-12-18T07:54:29;10.30;70.60
35700;DHT22;21818;51.078;12.108;2022-12-18T07:56:55;10.30;70.70
35700;DHT22;21818;51.078;12.108;2022-12-18T07:59:21;10.30;70.70
35700;DHT22;21818;51.078;12.108;2022-12-18T08:01:46;10.30;70.70
35700;DHT22;21818;51.078;12.108;2022-12-18T08:04:12;10.30;70.80
35700;DHT22;21818;51.078;12.108;2022-12-18T08:06:37;10.30;70.70
35700;DHT22;21818;51.078;12.108;2022-12-18T08:09:03;10.30;70.40
35700;DHT22;21818;51.078;12.108;2022-12-18T08:11:29;10.30;70.20
35700;DHT22;21818;51.078;12.108;2022-12-18T08:13:55;10.30;69.90
35700;DHT22;21818;51.078;12.108;2022-12-18T08:16:22;10.20;69.90
35700;DHT22;21818;51.078;12.108;2022-12-18T08:18:48;10.20;70.10
35700;DHT22;21818;51.078;12.108;2022-12-18T08:21:16;10.20;70.10
35700;DHT22;21818;51.078;12.108;2022-12-18T08:23:42;10.20;70.00
35700;DHT22;21818;51.078;12.108;2022-12-18T08:26:08;10.10;69.90
35700;DHT22;21818;51.078;12.108;2022-12-18T08:28:34;10.10;69.80
35700;DHT22;21818;51.078;12.108;2022-12-18T08:30:59;10.10;69.60
35700;DHT22;21818;51.078;12.108;2022-12-18T08:33:25;10.10;69.50
35700;DHT22;21818;51.078;12.108;2022-12-18T08:35:52;10.00;69.30
35700;DHT22;21818;51.078;12.108;2022-12-18T08:38:17;10.00;69.40
35700;DHT22;21818;51.078;12.108;2022-12-18T08:40:43;10.00;69.30
35700;DHT22;21818;51.078;12.108;2022-12-18T08:43:10;10.00;69.30
35700;DHT22;21818;51.078;12.108;2022-12-18T08:45:56;10.00;69.50
35700;DHT22;21818;51.078;12.108;2022-12-18T08:48:22;10.10;69.70
35700;DHT22;21818;51.078;12.108;2022-12-18T08:50:57;10.10;69.70
35700;DHT22;21818;51.078;12.108;2022-12-18T08:53:23;10.10;69.50
35700;DHT22;21818;51.078;12.108;2022-12-18T08:55:49;10.10;69.70
35700;DHT22;21818;51.078;12.108;2022-12-18T08:58:15;10.00;69.60
35700;DHT22;21818;51.078;12.108;2022-12-18T09:00:40;9.90;69.70
35700;DHT22;21818;51.078;12.108;2022-12-18T09:03:14;9.90;69.80
35700;DHT22;21818;51.078;12.108;2022-12-18T09:05:40;9.90;70.00
35700;DHT22;21818;51.078;12.108;2022-12-18T09:08:06;9.90;70.60
35700;DHT22;21818;51.078;12.108;2022-12-18T09:10:32;9.90;70.00
35700;DHT22;21818;51.078;12.108;2022-12-18T09:12:58;10.00;70.10
35700;DHT22;21818;51.078;12.108;2022-12-18T09:15:23;10.00;70.10
35700;DHT22;21818;51.078;12.108;2022-12-18T09:17:49;10.00;70.20
35700;DHT22;21818;51.078;12.108;2022-12-18T09:20:16;9.90;70.20
35700;DHT22;21818;51.078;12.108;2022-12-18T09:22:41;10.00;70.30
35700;DHT22;21818;51.078;12.108;2022-12-18T09:25:07;10.00;70.20
35700;DHT22;21818;51.078;12.108;2022-12-18T09:27:34;10.00;70.00
35700;DHT22;21818;51.078;12.108;2022-12-18T09:29:59;10.00;69.90
35700;DHT22;21818;51.078;12.108;2022-12-18T09:32:25;10.00;69.70
35700;DHT22;21818;51.078;12.108;2022-12-18T09:34:51;10.00;69.90
35700;DHT22;21818;51.078;12.108;2022-12-18T09:37:16;10.00;69.80
35700;DHT22;21818;51.078;12.108;2022-12-18T09:39:42;10.00;69.90
35700;DHT22;21818;51.078;12.108;2022-12-18T09:42:20;10.10;70.00
35700;DHT22;21818;51.078;12.108;2022-12-18T09:44:50;10.10;70.10
35700;DHT22;21818;51.078;12.108;2022-12-18T09:49:46;10.20;70.10
35700;DHT22;21818;51.078;12.108;2022-12-18T09:55:16;10.20;70.10
35700;DHT22;21818;51.078;12.108;2022-12-18T09:58:19;10.10;69.80
35700;DHT22;21818;51.078;12.108;2022-12-18T10:00:46;10.10;69.60
35700;DHT22;21818;51.078;12.108;2022-12-18T10:03:13;10.20;69.60
35700;DHT22;21818;51.078;12.108;2022-12-18T10:06:02;10.20;69.60
35700;DHT22;21818;51.078;12.108;2022-12-18T10:08:46;10.20;69.20
35700;DHT22;21818;51.078;12.108;2022-12-18T10:14:51;10.20;69.50
35700;DHT22;21818;51.078;12.108;2022-12-18T10:17:26;10.20;69.60
35700;DHT22;21818;51.078;12.108;2022-12-18T10:20:01;10.20;69.60
35700;DHT22;21818;51.078;12.108;2022-12-18T10:22:46;10.20;69.60
35700;DHT22;21818;51.078;12.108;2022-12-18T10:25:27;10.30;69.70
35700;DHT22;21818;51.078;12.108;2022-12-18T10:27:57;10.30;69.70
35700;DHT22;21818;51.078;12.108;2022-12-18T10:30:25;10.30;69.60
35700;DHT22;21818;51.078;12.108;2022-12-18T10:32:51;10.40;69.60
35700;DHT22;21818;51.078;12.108;2022-12-18T10:35:22;10.40;69.60
35700;DHT22;21818;51.078;12.108;2022-12-18T10:40:34;10.40;69.50
35700;DHT22;21818;51.078;12.108;2022-12-18T10:43:14;10.50;69.50
35700;DHT22;21818;51.078;12.108;2022-12-18T10:45:40;10.50;70.20
35700;DHT22;21818;51.078;12.108;2022-12-18T10:48:18;10.50;69.50
35700;DHT22;21818;51.078;12.108;2022-12-18T10:50:48;10.50;69.50
35700;DHT22;21818;51.078;12.108;2022-12-18T10:53:22;10.50;69.40
35700;DHT22;21818;51.078;12.108;2022-12-18T10:55:49;10.50;69.40
35700;DHT22;21818;51.078;12.108;2022-12-18T10:58:21;10.60;69.40
35700;DHT22;21818;51.078;12.108;2022-12-18T11:01:23;10.60;69.40
35700;DHT22;21818;51.078;12.108;2022-12-18T11:06:24;10.60;69.40
35700;DHT22;21818;51.078;12.108;2022-12-18T11:09:21;10.50;69.40
35700;DHT22;21818;51.078;12.108;2022-12-18T11:11:55;10.60;69.50
35700;DHT22;21818;51.078;12.108;2022-12-18T11:17:39;10.60;69.40
35700;DHT22;21818;51.078;12.108;2022-12-18T11:20:06;10.70;69.50
35700;DHT22;21818;51.078;12.108;2022-12-18T11:22:35;10.70;69.50
35700;DHT22;21818;51.078;12.108;2022-12-18T11:27:31;10.70;69.40
35700;DHT22;21818;51.078;12.108;2022-12-18T11:30:10;10.70;69.20
35700;DHT22;21818;51.078;12.108;2022-12-18T11:32:45;10.80;69.10
35700;DHT22;21818;51.078;12.108;2022-12-18T11:35:25;10.90;69.00
35700;DHT22;21818;51.078;12.108;2022-12-18T11:37:56;11.00;69.00
35700;DHT22;21818;51.078;12.108;2022-12-18T11:40:38;10.90;68.80
35700;DHT22;21818;51.078;12.108;2022-12-18T11:43:27;11.00;68.90
35700;DHT22;21818;51.078;12.108;2022-12-18T11:46:15;11.00;68.90
35700;DHT22;21818;51.078;12.108;2022-12-18T11:51:35;11.00;69.00
35700;DHT22;21818;51.078;12.108;2022-12-18T11:54:14;11.00;68.90
35700;DHT22;21818;51.078;12.108;2022-12-18T12:01:58;11.00;69.10
35700;DHT22;21818;51.078;12.108;2022-12-18T12:04:46;10.90;69.10
35700;DHT22;21818;51.078;12.108;2022-12-18T12:10:48;11.00;69.10
35700;DHT22;21818;51.078;12.108;2022-12-18T12:22:46;11.00;69.10
35700;DHT22;21818;51.078;12.108;2022-12-18T12:30:19;11.20;69.00
35700;DHT22;21818;51.078;12.108;2022-12-18T12:33:33;11.20;68.90
35700;DHT22;21818;51.078;12.108;2022-12-18T12:36:49;11.20;68.70
35700;DHT22;21818;51.078;12.108;2022-12-18T12:39:10;11.20;68.80
35700;DHT22;21818;51.078;12.108;2022-12-18T12:41:39;11.40;68.60
35700;DHT22;21818;51.078;12.108;2022-12-18T12:44:34;11.50;68.30
35700;DHT22;21818;51.078;12.108;2022-12-18T12:47:11;11.60;68.10
35700;DHT22;21818;51.078;12.108;2022-12-18T12:49:39;11.60;67.90
35700;DHT22;21818;51.078;12.108;2022-12-18T12:52:10;11.60;67.80
35700;DHT22;21818;51.078;12.108;2022-12-18T12:54:37;11.60;68.00
35700;DHT22;21818;51.078;12.108;2022-12-18T12:57:31;11.50;68.00
35700;DHT22;21818;51.078;12.108;2022-12-18T13:05:46;11.60;67.70
35700;DHT22;21818;51.078;12.108;2022-12-18T13:09:18;11.70;67.60
35700;DHT22;21818;51.078;12.108;2022-12-18T13:11:40;11.70;67.30
35700;DHT22;21818;51.078;12.108;2022-12-18T13:14:34;11.80;67.40
35700;DHT22;21818;51.078;12.108;2022-12-18T13:19:52;11.90;67.00
35700;DHT22;21818;51.078;12.108;2022-12-18T13:22:39;12.00;67.00
35700;DHT22;21818;51.078;12.108;2022-12-18T13:25:34;12.00;66.90
35700;DHT22;21818;51.078;12.108;2022-12-18T13:31:00;11.90;66.80
35700;DHT22;21818;51.078;12.108;2022-12-18T13:36:32;11.80;67.10
35700;DHT22;21818;51.078;12.108;2022-12-18T13:39:33;11.70;67.00
35700;DHT22;21818;51.078;12.108;2022-12-18T13:44:39;11.60;67.40
35700;DHT22;21818;51.078;12.108;2022-12-18T13:49:50;11.50;67.50
35700;DHT22;21818;51.078;12.108;2022-12-18T13:52:20;11.40;67.60
35700;DHT22;21818;51.078;12.108;2022-12-18T13:54:52;11.40;67.60
35700;DHT22;21818;51.078;12.108;2022-12-18T13:57:34;11.30;67.70
35700;DHT22;21818;51.078;12.108;2022-12-18T14:02:48;11.30;67.70
35700;DHT22;21818;51.078;12.108;2022-12-18T14:05:24;11.30;67.80
35700;DHT22;21818;51.078;12.108;2022-12-18T14:07:51;11.30;67.80
35700;DHT22;21818;51.078;12.108;2022-12-18T14:10:17;11.30;67.80
35700;DHT22;21818;51.078;12.108;2022-12-18T14:12:50;11.30;67.90
35700;DHT22;21818;51.078;12.108;2022-12-18T14:18:02;11.20;67.80
35700;DHT22;21818;51.078;12.108;2022-12-18T14:20:31;11.20;67.80
35700;DHT22;21818;51.078;12.108;2022-12-18T14:22:57;11.20;67.80
35700;DHT22;21818;51.078;12.108;2022-12-18T14:25:28;11.20;68.00
35700;DHT22;21818;51.078;12.108;2022-12-18T14:30:40;11.20;67.80
35700;DHT22;21818;51.078;12.108;2022-12-18T14:35:59;11.20;67.80
35700;DHT22;21818;51.078;12.108;2022-12-18T14:38:34;11.10;67.70
35700;DHT22;21818;51.078;12.108;2022-12-18T14:41:11;11.10;67.70
35700;DHT22;21818;51.078;12.108;2022-12-18T14:43:42;11.10;67.70
35700;DHT22;21818;51.078;12.108;2022-12-18T14:48:53;11.00;67.60
35700;DHT22;21818;51.078;12.108;2022-12-18T14:51:20;11.00;67.80
35700;DHT22;21818;51.078;12.108;2022-12-18T14:53:47;11.00;67.80
35700;DHT22;21818;51.078;12.108;2022-12-18T14:56:25;10.90;67.80
35700;DHT22;21818;51.078;12.108;2022-12-18T14:59:03;10.90;67.80
35700;DHT22;21818;51.078;12.108;2022-12-18T15:01:34;10.90;67.80
35700;DHT22;21818;51.078;12.108;2022-12-18T15:04:03;10.90;67.90
35700;DHT22;21818;51.078;12.108;2022-12-18T15:08:55;10.80;68.00
35700;DHT22;21818;51.078;12.108;2022-12-18T15:14:43;10.70;68.10
35700;DHT22;21818;51.078;12.108;2022-12-18T15:17:21;10.60;68.20
35700;DHT22;21818;51.078;12.108;2022-12-18T15:19:48;10.60;68.40
35700;DHT22;21818;51.078;12.108;2022-12-18T15:22:30;10.60;68.40
35700;DHT22;21818;51.078;12.108;2022-12-18T15:24:57;10.60;68.30
35700;DHT22;21818;51.078;12.108;2022-12-18T15:27:29;10.70;68.30
35700;DHT22;21818;51.078;12.108;2022-12-18T15:32:39;10.70;68.30
35700;DHT22;21818;51.078;12.108;2022-12-18T15:37:37;10.70;68.30
35700;DHT22;21818;51.078;12.108;2022-12-18T15:40:04;10.70;68.20
35700;DHT22;21818;51.078;12.108;2022-12-18T15:42:29;10.70;68.20
35700;DHT22;21818;51.078;12.108;2022-12-18T15:45:14;10.70;68.20
35700;DHT22;21818;51.078;12.108;2022-12-18T15:47:40;10.70;68.20
35700;DHT22;21818;51.078;12.108;2022-12-18T15:50:07;10.70;68.20
35700;DHT22;21818;51.078;12.108;2022-12-18T15:52:40;10.70;68.30
35700;DHT22;21818;51.078;12.108;2022-12-18T15:55:14;10.70;68.30
35700;DHT22;21818;51.078;12.108;2022-12-18T15:57:59;10.70;68.30
35700;DHT22;21818;51.078;12.108;2022-12-18T16:00:25;10.70;68.80
35700;DHT22;21818;51.078;12.108;2022-12-18T16:02:51;10.70;68.30
35700;DHT22;21818;51.078;12.108;2022-12-18T16:05:18;10.70;68.20
35700;DHT22;21818;51.078;12.108;2022-12-18T16:07:44;10.70;68.30
35700;DHT22;21818;51.078;12.108;2022-12-18T16:10:10;10.70;68.30
35700;DHT22;21818;51.078;12.108;2022-12-18T16:12:36;10.70;68.30
35700;DHT22;21818;51.078;12.108;2022-12-18T16:15:03;10.70;68.30
35700;DHT22;21818;51.078;12.108;2022-12-18T16:17:29;10.60;68.20
35700;DHT22;21818;51.078;12.108;2022-12-18T16:19:55;10.60;68.20
35700;DHT22;21818;51.078;12.108;2022-12-18T16:22:23;10.70;68.30
35700;DHT22;21818;51.078;12.108;2022-12-18T16:24:50;10.70;68.30
35700;DHT22;21818;51.078;12.108;2022-12-18T16:27:16;10.60;68.30
35700;DHT22;21818;51.078;12.108;2022-12-18T16:29:41;10.60;68.30
35700;DHT22;21818;51.078;12.108;2022-12-18T16:32:11;10.60;68.30
35700;DHT22;21818;51.078;12.108;2022-12-18T16:34:37;10.70;68.30
35700;DHT22;21818;51.078;12.108;2022-12-18T16:37:05;10.60;68.20
35700;DHT22;21818;51.078;12.108;2022-12-18T16:39:32;10.60;68.30
35700;DHT22;21818;51.078;12.108;2022-12-18T16:41:59;10.60;68.30
35700;DHT22;21818;51.078;12.108;2022-12-18T16:44:25;10.60;68.30
35700;DHT22;21818;51.078;12.108;2022-12-18T16:46:50;10.60;68.30
35700;DHT22;21818;51.078;12.108;2022-12-18T16:49:17;10.60;68.30
35700;DHT22;21818;51.078;12.108;2022-12-18T16:51:43;10.60;68.30
35700;DHT22;21818;51.078;12.108;2022-12-18T16:54:09;10.60;68.30
35700;DHT22;21818;51.078;12.108;2022-12-18T16:56:35;10.60;68.40
35700;DHT22;21818;51.078;12.108;2022-12-18T16:59:02;10.50;68.40
35700;DHT22;21818;51.078;12.108;2022-12-18T17:01:30;10.50;68.40
35700;DHT22;21818;51.078;12.108;2022-12-18T17:04:00;10.60;68.50
35700;DHT22;21818;51.078;12.108;2022-12-18T17:06:27;10.50;68.40
35700;DHT22;21818;51.078;12.108;2022-12-18T17:08:58;10.50;68.40
35700;DHT22;21818;51.078;12.108;2022-12-18T17:11:28;10.50;68.40
35700;DHT22;21818;51.078;12.108;2022-12-18T17:13:54;10.50;68.40
35700;DHT22;21818;51.078;12.108;2022-12-18T17:16:20;10.50;68.50
35700;DHT22;21818;51.078;12.108;2022-12-18T17:18:46;10.50;68.60
35700;DHT22;21818;51.078;12.108;2022-12-18T17:21:13;10.40;68.60
35700;DHT22;21818;51.078;12.108;2022-12-18T17:23:40;10.40;68.60
35700;DHT22;21818;51.078;12.108;2022-12-18T17:26:06;10.40;68.60
35700;DHT22;21818;51.078;12.108;2022-12-18T17:28:34;10.40;68.60
35700;DHT22;21818;51.078;12.108;2022-12-18T17:31:00;10.50;68.60
35700;DHT22;21818;51.078;12.108;2022-12-18T17:33:26;10.50;68.60
35700;DHT22;21818;51.078;12.108;2022-12-18T17:35:52;10.50;68.60
35700;DHT22;21818;51.078;12.108;2022-12-18T17:38:18;10.50;68.60